Busberget, Sweden

5:15 PM CET on January 18, 2017 (GMT +0100)
Trosa | | Change Station

Elev 0 ft 58.78 °N, 17.49 °E | Updated 5 minutes ago

Overcast
Overcast
36.9 °F
Feels Like 37 °F
N
2.5
Wind Variable Wind from WSW
Gusts 4.3 mph

Today
High -- | Low -- °F
--% Chance of Precip.
Yesterday
High -- | Low -- °F
Precip. -- in
Pressure 30.27 in
Visibility 1.6 miles
Clouds
Windchill 37 °F
Dew Point 36 °F
Humidity 98%
Rainfall 0.00 in
Snow Depth Not available.
8:24 AM 3:37 PM
Waning Gibbous, 62% visible
METAR ESKN 181550Z 24009KT 2500 -DZ BR VV003 03/02 Q1025 R26/290195
Pressure 30.27 in
Visibility 1.6 miles
Clouds
Windchill 37 °F
Dew Point 36 °F
Humidity 98%
Rainfall 0.00 in
Snow Depth Not available.
8:24 AM 3:37 PM
Waning Gibbous, 62% visible
METAR ESKN 181550Z 24009KT 2500 -DZ BR VV003 03/02 Q1025 R26/290195

Get Your Daily Forecast Email!

Thanks for signing up!

Be on the lookout for a verification email in your inbox.

You'll start receiving the daily forecast at 8 AM.

×

10-Day Weather Forecast

×

Almanac

Astronomy

Jan. 18, 2017 Rise Set
Actual Time
Civil Twilight
Nautical Twilight
Astronomical Twilight
Moon
Length of Visible Light
Length of Day
Tomorrow will be .
, % of the Moon is Illuminated

Today's Extremes

Country Highs Country Lows

Community

WunderPhotos

Upload Photos

1,962,540 photos uploaded!

WunderBlog® & News

Nearby

Air Quality

  Air Quality AQ Index Pollutant
Not available.

Snow Depth

Station Depth Elevation

Earthquake Activity

City Distance Mag. Time & Date
Minimum magnitude displayed is 2.5.

Coastal Water Temperatures

Place Temperature

Stations

Nearby Weather Stations

Station Location Temp. Windchill Dew Point Humidity Wind Precip. Elev Updated Type